createdAt,value
2023-03-24T00:01:24.767Z,12.40
2023-03-24T00:03:51.373Z,12.50
2023-03-24T00:06:18.027Z,12.70
2023-03-24T00:08:44.577Z,12.80
2023-03-24T00:11:11.138Z,12.70
2023-03-24T00:13:37.678Z,12.80
2023-03-24T00:16:04.239Z,12.70
2023-03-24T00:18:30.846Z,12.70
2023-03-24T00:20:57.397Z,12.70
2023-03-24T00:23:24.038Z,12.60
2023-03-24T00:25:50.582Z,12.60
2023-03-24T00:28:17.203Z,12.70
2023-03-24T00:30:43.948Z,12.60
2023-03-24T00:33:10.644Z,12.60
2023-03-24T00:35:37.241Z,12.60
2023-03-24T00:38:03.860Z,12.20
2023-03-24T00:40:30.406Z,12.00
2023-03-24T00:42:56.980Z,12.20
2023-03-24T00:45:23.840Z,12.40
2023-03-24T00:47:50.709Z,12.40
2023-03-24T00:50:17.372Z,12.30
2023-03-24T00:52:43.998Z,12.20
2023-03-24T00:55:10.627Z,11.70
2023-03-24T00:57:37.239Z,11.70
2023-03-24T01:00:03.783Z,12.00
2023-03-24T01:02:30.431Z,12.00
2023-03-24T01:04:57.044Z,12.10
2023-03-24T01:07:23.601Z,11.80
2023-03-24T01:09:50.259Z,11.80
2023-03-24T01:12:16.851Z,11.90
2023-03-24T01:14:43.396Z,12.00
2023-03-24T01:17:09.989Z,12.00
2023-03-24T01:19:36.568Z,12.10
2023-03-24T01:22:03.098Z,12.20
2023-03-24T01:24:29.713Z,12.20
2023-03-24T01:26:56.296Z,12.30
2023-03-24T01:29:22.897Z,12.30
2023-03-24T01:31:49.539Z,12.30
2023-03-24T01:34:16.178Z,12.30
2023-03-24T01:36:42.744Z,11.80
2023-03-24T01:39:09.979Z,11.60
2023-03-24T01:41:36.562Z,11.30
2023-03-24T01:46:47.227Z,11.60
2023-03-24T01:49:13.787Z,11.20
2023-03-24T01:51:40.385Z,11.20
2023-03-24T01:54:06.938Z,11.50
2023-03-24T01:56:33.671Z,11.40
2023-03-24T01:59:00.262Z,11.10
2023-03-24T02:01:26.867Z,10.90
2023-03-24T02:03:53.504Z,11.20
2023-03-24T02:06:20.189Z,11.10
2023-03-24T02:08:46.911Z,11.20
2023-03-24T02:11:13.516Z,11.30
2023-03-24T02:13:40.065Z,11.40
2023-03-24T02:16:06.736Z,11.60
2023-03-24T02:18:33.398Z,11.40
2023-03-24T02:21:00.015Z,11.40
2023-03-24T02:23:26.613Z,11.20
2023-03-24T02:25:53.210Z,11.30
2023-03-24T02:28:19.761Z,11.40
2023-03-24T02:30:46.472Z,11.40
2023-03-24T02:33:13.210Z,11.60
2023-03-24T02:35:39.816Z,11.50
2023-03-24T02:38:06.479Z,11.30
2023-03-24T02:40:33.067Z,11.50
2023-03-24T02:42:59.690Z,11.70
2023-03-24T02:45:26.238Z,11.80
2023-03-24T02:47:52.839Z,11.90
2023-03-24T02:50:19.408Z,11.70
2023-03-24T02:52:45.992Z,11.60
2023-03-24T02:55:12.580Z,11.50
2023-03-24T02:57:39.164Z,11.70
2023-03-24T03:00:05.724Z,11.80
2023-03-24T03:02:32.338Z,11.90
2023-03-24T03:04:58.974Z,12.00
2023-03-24T03:07:26.700Z,12.00
2023-03-24T03:09:53.300Z,12.00
2023-03-24T03:12:19.922Z,11.90
2023-03-24T03:14:46.575Z,11.60
2023-03-24T03:17:13.165Z,11.40
2023-03-24T03:19:39.726Z,11.20
2023-03-24T03:22:06.341Z,11.00
2023-03-24T03:24:32.934Z,11.20
2023-03-24T03:26:59.660Z,11.40
2023-03-24T03:29:26.217Z,11.40
2023-03-24T03:31:52.846Z,11.10
2023-03-24T03:34:21.478Z,11.50
2023-03-24T03:36:48.092Z,11.60
2023-03-24T03:39:14.737Z,11.60
2023-03-24T03:41:41.277Z,11.70
2023-03-24T03:44:07.865Z,11.40
2023-03-24T03:46:34.565Z,11.30
2023-03-24T03:49:01.224Z,11.10
2023-03-24T03:51:27.882Z,11.10
2023-03-24T03:53:54.439Z,11.10
2023-03-24T03:56:21.008Z,11.40
2023-03-24T03:58:47.593Z,11.40
2023-03-24T04:01:14.213Z,11.20
2023-03-24T04:03:40.965Z,11.40
2023-03-24T04:06:07.641Z,11.30
2023-03-24T04:08:34.275Z,11.20
2023-03-24T04:11:00.829Z,11.30
2023-03-24T04:13:27.375Z,11.10
2023-03-24T04:15:53.952Z,11.20
2023-03-24T04:18:20.556Z,11.40
2023-03-24T04:20:47.237Z,11.30
2023-03-24T04:23:14.476Z,11.40
2023-03-24T04:25:41.259Z,11.40
2023-03-24T04:28:07.817Z,11.50
2023-03-24T04:30:34.369Z,11.40
2023-03-24T04:33:00.968Z,11.20
2023-03-24T04:35:27.526Z,11.30
2023-03-24T04:37:54.114Z,11.20
2023-03-24T04:40:20.722Z,11.00
2023-03-24T04:42:47.348Z,11.10
2023-03-24T04:45:13.912Z,11.00
2023-03-24T04:47:40.528Z,11.10
2023-03-24T04:50:07.102Z,11.00
2023-03-24T04:52:33.691Z,11.30
2023-03-24T04:55:00.269Z,11.00
2023-03-24T04:57:26.836Z,11.10
2023-03-24T04:59:53.439Z,11.20
2023-03-24T05:02:21.683Z,11.20
2023-03-24T05:04:48.502Z,11.50
2023-03-24T05:07:15.077Z,11.30
2023-03-24T05:09:41.686Z,11.30
2023-03-24T05:12:08.253Z,11.40
2023-03-24T05:14:34.865Z,11.50
2023-03-24T05:17:01.406Z,11.50
2023-03-24T05:19:28.031Z,11.50
2023-03-24T05:21:54.602Z,11.20
2023-03-24T05:24:21.141Z,11.30
2023-03-24T05:26:47.741Z,11.40
2023-03-24T05:29:14.294Z,11.60
2023-03-24T05:31:40.842Z,11.70
2023-03-24T05:34:07.427Z,11.90
2023-03-24T05:36:34.265Z,11.90
2023-03-24T05:39:00.857Z,11.90
2023-03-24T05:41:27.397Z,12.00
2023-03-24T05:43:54.079Z,11.70
2023-03-24T05:46:20.640Z,11.70
2023-03-24T05:48:47.356Z,11.80
2023-03-24T05:51:13.994Z,11.90
2023-03-24T05:53:40.567Z,12.10
2023-03-24T05:56:07.187Z,12.20
2023-03-24T05:58:33.766Z,12.40
2023-03-24T06:01:00.359Z,12.50
2023-03-24T06:03:27.072Z,12.60
2023-03-24T06:05:53.697Z,12.50
2023-03-24T06:08:20.292Z,12.50
2023-03-24T06:10:46.907Z,12.40
2023-03-24T06:13:15.426Z,12.50
2023-03-24T06:15:41.999Z,12.70
2023-03-24T06:18:08.663Z,12.90
2023-03-24T06:20:35.266Z,12.90
2023-03-24T06:23:01.875Z,13.00
2023-03-24T06:25:28.436Z,13.20
2023-03-24T06:27:55.030Z,13.40
2023-03-24T06:30:21.646Z,13.50
2023-03-24T06:32:48.359Z,13.80
2023-03-24T06:35:14.956Z,13.80
2023-03-24T06:37:41.564Z,13.70
2023-03-24T06:40:08.299Z,13.70
2023-03-24T06:42:34.844Z,14.00
2023-03-24T06:45:01.470Z,14.00
2023-03-24T06:47:28.071Z,14.00
2023-03-24T06:49:54.685Z,14.20
2023-03-24T06:52:21.239Z,14.20
2023-03-24T06:54:47.781Z,14.40
2023-03-24T06:57:14.496Z,14.30
2023-03-24T06:59:41.127Z,14.40
2023-03-24T07:02:07.842Z,14.80
2023-03-24T07:04:34.465Z,14.80
2023-03-24T07:07:25.876Z,15.00
2023-03-24T07:09:47.694Z,15.00
2023-03-24T07:12:14.916Z,15.30
2023-03-24T07:14:41.554Z,15.60
2023-03-24T07:17:08.163Z,15.60
2023-03-24T07:19:34.717Z,15.80
2023-03-24T07:22:01.314Z,15.90
2023-03-24T07:24:30.563Z,16.30
2023-03-24T07:26:58.205Z,16.50
2023-03-24T07:29:24.779Z,16.40
2023-03-24T07:31:51.431Z,16.00
2023-03-24T07:34:18.084Z,16.40
2023-03-24T07:36:44.699Z,16.50
2023-03-24T07:39:11.262Z,16.70
2023-03-24T07:41:37.825Z,16.80
2023-03-24T07:44:04.369Z,16.70
2023-03-24T07:46:30.983Z,16.70
2023-03-24T07:49:03.269Z,16.70
2023-03-24T07:51:37.888Z,16.60
2023-03-24T07:54:06.341Z,16.40
2023-03-24T07:56:32.951Z,16.50
2023-03-24T07:58:59.574Z,16.80
2023-03-24T08:01:26.278Z,16.90
2023-03-24T08:03:53.073Z,17.30
2023-03-24T08:06:19.761Z,17.30
2023-03-24T08:08:46.370Z,17.40
2023-03-24T08:11:12.927Z,17.40
2023-03-24T08:13:39.465Z,17.40
2023-03-24T08:16:06.020Z,16.90
2023-03-24T08:18:32.584Z,16.90
2023-03-24T08:20:59.180Z,17.40
2023-03-24T08:23:25.775Z,17.60
2023-03-24T08:25:52.314Z,17.70
2023-03-24T08:28:18.890Z,17.90
2023-03-24T08:30:45.592Z,18.00
2023-03-24T08:33:12.674Z,18.00
2023-03-24T08:35:39.413Z,17.90
2023-03-24T08:38:07.167Z,18.20
2023-03-24T08:40:33.853Z,18.20
2023-03-24T08:43:00.441Z,18.30
2023-03-24T08:45:28.091Z,18.60
2023-03-24T08:47:54.774Z,18.70
2023-03-24T08:50:21.366Z,18.50
2023-03-24T08:52:47.937Z,18.60
2023-03-24T08:55:14.526Z,18.60
2023-03-24T08:57:41.121Z,18.60
2023-03-24T09:00:07.670Z,18.70
2023-03-24T09:02:34.296Z,18.90
2023-03-24T09:05:01.319Z,18.90
2023-03-24T09:07:27.958Z,18.90
2023-03-24T09:09:54.545Z,18.80
2023-03-24T09:12:21.101Z,19.20
2023-03-24T09:14:47.671Z,19.60
2023-03-24T09:17:14.243Z,19.40
2023-03-24T09:19:40.771Z,19.50
2023-03-24T09:22:07.329Z,19.80
2023-03-24T09:24:33.889Z,20.10
2023-03-24T09:27:00.569Z,20.50
2023-03-24T09:29:27.133Z,20.90
2023-03-24T09:31:53.730Z,21.10
2023-03-24T09:34:20.290Z,21.50
2023-03-24T09:36:46.865Z,21.50
2023-03-24T09:39:13.407Z,21.70
2023-03-24T09:41:40.064Z,21.70
2023-03-24T09:44:06.614Z,21.60
2023-03-24T09:46:33.174Z,21.20
2023-03-24T09:48:59.787Z,21.10
2023-03-24T09:51:26.400Z,21.00
2023-03-24T09:53:52.996Z,20.80
2023-03-24T09:56:19.562Z,21.20
2023-03-24T09:58:47.176Z,21.60
2023-03-24T10:01:13.784Z,21.60
2023-03-24T10:03:40.488Z,21.90
2023-03-24T10:06:07.041Z,22.30
2023-03-24T10:08:33.613Z,21.90
2023-03-24T10:11:00.190Z,21.20
2023-03-24T10:13:26.749Z,21.00
2023-03-24T10:15:53.672Z,21.40
2023-03-24T10:18:20.494Z,21.60
2023-03-24T10:20:47.071Z,21.50
2023-03-24T10:23:13.649Z,21.90
2023-03-24T10:25:40.187Z,21.90
2023-03-24T10:28:06.776Z,21.70
2023-03-24T10:30:33.386Z,21.30
2023-03-24T10:33:00.005Z,21.70
2023-03-24T10:35:26.616Z,21.80
2023-03-24T10:37:53.180Z,22.30
2023-03-24T10:40:19.733Z,22.50
2023-03-24T10:42:46.303Z,22.20
2023-03-24T10:45:12.886Z,21.90
2023-03-24T10:47:39.535Z,22.30
2023-03-24T10:50:14.253Z,22.80
2023-03-24T10:52:42.186Z,22.80
2023-03-24T10:55:08.815Z,23.00
2023-03-24T10:57:35.378Z,23.00
2023-03-24T11:00:01.980Z,22.60
2023-03-24T11:02:28.680Z,22.60
2023-03-24T11:04:55.442Z,22.90
2023-03-24T11:07:22.029Z,23.20
2023-03-24T11:12:39.701Z,23.00
2023-03-24T11:15:19.675Z,22.90
2023-03-24T11:17:48.264Z,22.70
2023-03-24T11:20:14.926Z,22.50
2023-03-24T11:22:41.525Z,22.40
2023-03-24T11:25:08.084Z,22.60
2023-03-24T11:27:34.600Z,22.90
2023-03-24T11:30:01.167Z,23.10
2023-03-24T11:32:27.748Z,23.40
2023-03-24T11:34:54.349Z,22.90
2023-03-24T11:37:20.892Z,22.90
2023-03-24T11:39:47.449Z,23.00
2023-03-24T11:42:14.027Z,23.20
2023-03-24T11:44:40.872Z,23.10
2023-03-24T11:47:07.647Z,22.70
2023-03-24T11:49:35.226Z,22.70
2023-03-24T11:52:02.293Z,22.70
2023-03-24T11:54:30.105Z,22.70
2023-03-24T11:56:58.733Z,22.90
2023-03-24T11:59:25.325Z,23.20
2023-03-24T12:01:54.223Z,23.20
2023-03-24T12:04:20.809Z,23.10
2023-03-24T12:06:47.422Z,22.60
2023-03-24T12:09:14.420Z,22.50
2023-03-24T12:11:41.055Z,22.60
2023-03-24T12:14:07.619Z,22.80
2023-03-24T12:16:34.287Z,23.00
2023-03-24T12:19:00.856Z,23.30
2023-03-24T12:21:27.555Z,23.70
2023-03-24T12:23:54.132Z,23.40
2023-03-24T12:26:20.731Z,23.10
2023-03-24T12:28:47.289Z,22.90
2023-03-24T12:31:13.869Z,22.70
2023-03-24T12:33:40.457Z,22.50
2023-03-24T12:36:07.159Z,22.70
2023-03-24T12:38:33.737Z,23.10
2023-03-24T12:41:00.301Z,23.10
2023-03-24T12:43:26.882Z,23.00
2023-03-24T12:45:53.503Z,23.10
2023-03-24T12:48:20.137Z,23.20
2023-03-24T12:50:46.740Z,22.90
2023-03-24T12:53:14.305Z,22.80
2023-03-24T12:55:41.025Z,23.10
2023-03-24T12:58:07.630Z,23.20
2023-03-24T13:00:34.199Z,23.10
2023-03-24T13:03:00.949Z,23.40
2023-03-24T13:05:27.660Z,23.50
2023-03-24T13:07:54.352Z,23.70
2023-03-24T13:10:20.923Z,23.60
2023-03-24T13:12:47.533Z,23.60
2023-03-24T13:15:14.170Z,23.80
2023-03-24T13:17:40.749Z,23.80
2023-03-24T13:20:07.337Z,24.00
2023-03-24T13:22:33.945Z,24.00
2023-03-24T13:25:00.518Z,24.20
2023-03-24T13:27:27.074Z,23.80
2023-03-24T13:29:53.840Z,23.80
2023-03-24T13:32:20.386Z,23.80
2023-03-24T13:34:46.948Z,23.60
2023-03-24T13:37:13.570Z,23.70
2023-03-24T13:39:40.230Z,23.50
2023-03-24T13:42:06.818Z,23.50
2023-03-24T13:44:33.390Z,23.70
2023-03-24T13:46:59.965Z,23.60
2023-03-24T13:49:26.623Z,23.50
2023-03-24T13:51:53.170Z,23.60
2023-03-24T13:54:19.711Z,23.50
2023-03-24T13:56:46.357Z,23.50
2023-03-24T13:59:12.934Z,23.80
2023-03-24T14:01:39.579Z,23.90
2023-03-24T14:04:06.213Z,24.00
2023-03-24T14:06:32.769Z,24.00
2023-03-24T14:08:59.329Z,24.10
2023-03-24T14:11:25.883Z,24.10
2023-03-24T14:13:52.442Z,23.90
2023-03-24T14:16:19.061Z,24.20
2023-03-24T14:18:45.665Z,24.10
2023-03-24T14:21:12.286Z,24.00
2023-03-24T14:23:38.827Z,23.90
2023-03-24T14:26:05.398Z,23.90
2023-03-24T14:28:31.984Z,23.90
2023-03-24T14:30:58.681Z,23.90
2023-03-24T14:33:25.308Z,23.70
2023-03-24T14:35:52.007Z,23.90
2023-03-24T14:38:18.621Z,23.90
2023-03-24T14:40:45.166Z,23.70
2023-03-24T14:43:11.724Z,23.50
2023-03-24T14:45:38.303Z,23.60
2023-03-24T14:48:04.877Z,23.80
2023-03-24T14:50:31.452Z,23.60
2023-03-24T14:52:58.046Z,23.70
2023-03-24T14:55:24.629Z,24.00
2023-03-24T14:57:51.251Z,24.10
2023-03-24T15:00:17.823Z,24.00
2023-03-24T15:02:44.406Z,23.90
2023-03-24T15:05:10.989Z,23.90
2023-03-24T15:07:37.678Z,24.00
2023-03-24T15:10:04.345Z,23.90
2023-03-24T15:12:30.994Z,23.90
2023-03-24T15:15:00.822Z,24.00
2023-03-24T15:17:27.562Z,24.10
2023-03-24T15:19:54.104Z,24.10
2023-03-24T15:22:20.670Z,24.50
2023-03-24T15:24:47.232Z,24.80
2023-03-24T15:27:13.815Z,24.40
2023-03-24T15:29:40.369Z,24.80
2023-03-24T15:32:07.002Z,24.80
2023-03-24T15:34:33.579Z,24.80
2023-03-24T15:37:00.130Z,24.30
2023-03-24T15:39:26.706Z,24.10
2023-03-24T15:41:53.296Z,24.10
2023-03-24T15:44:19.865Z,24.20
2023-03-24T15:46:46.524Z,24.10
2023-03-24T15:49:13.135Z,23.80
2023-03-24T15:51:39.716Z,23.10
2023-03-24T15:54:06.277Z,22.90
2023-03-24T15:56:32.886Z,23.20
2023-03-24T15:58:59.712Z,23.20
2023-03-24T16:01:26.293Z,23.00
2023-03-24T16:03:52.876Z,23.10
2023-03-24T16:06:19.564Z,23.00
2023-03-24T16:08:46.121Z,22.90
2023-03-24T16:11:12.689Z,22.90
2023-03-24T16:13:39.397Z,22.40
2023-03-24T16:16:05.949Z,22.30
2023-03-24T16:18:32.521Z,22.20
2023-03-24T16:20:59.106Z,22.30
2023-03-24T16:23:26.834Z,22.60
2023-03-24T16:25:53.482Z,22.90
2023-03-24T16:28:20.044Z,23.20
2023-03-24T16:30:46.790Z,23.30
2023-03-24T16:33:13.512Z,23.20
2023-03-24T16:35:40.127Z,23.10
2023-03-24T16:38:06.706Z,22.90
2023-03-24T16:40:33.286Z,23.00
2023-03-24T16:42:59.862Z,23.10
2023-03-24T16:45:26.464Z,22.90
2023-03-24T16:47:53.112Z,22.70
2023-03-24T16:50:20.704Z,22.50
2023-03-24T16:52:47.251Z,22.60
2023-03-24T16:55:13.826Z,22.20
2023-03-24T16:57:40.379Z,22.00
2023-03-24T17:00:06.957Z,22.20
2023-03-24T17:02:33.580Z,22.40
2023-03-24T17:05:00.211Z,22.20
2023-03-24T17:07:26.739Z,22.00
2023-03-24T17:09:53.285Z,22.20
2023-03-24T17:12:19.876Z,22.30
2023-03-24T17:14:46.436Z,21.80
2023-03-24T17:17:12.980Z,21.60
2023-03-24T17:19:39.520Z,21.80
2023-03-24T17:22:06.087Z,21.90
2023-03-24T17:24:32.685Z,21.60
2023-03-24T17:26:59.317Z,21.00
2023-03-24T17:29:25.898Z,20.80
2023-03-24T17:31:52.537Z,20.90
2023-03-24T17:34:21.985Z,20.60
2023-03-24T17:36:49.074Z,20.20
2023-03-24T17:39:15.671Z,20.20
2023-03-24T17:41:42.228Z,20.00
2023-03-24T17:44:08.820Z,20.20
2023-03-24T17:46:35.473Z,20.20
2023-03-24T17:49:02.101Z,20.10
2023-03-24T17:51:28.644Z,20.20
2023-03-24T17:53:55.221Z,20.20
2023-03-24T17:56:21.820Z,20.20
2023-03-24T17:58:48.448Z,20.20
2023-03-24T18:01:15.052Z,20.20
2023-03-24T18:03:41.674Z,20.20
2023-03-24T18:06:08.311Z,20.20
2023-03-24T18:08:34.937Z,20.20
2023-03-24T18:11:01.655Z,20.20
2023-03-24T18:13:28.240Z,20.20
2023-03-24T18:15:54.805Z,19.70
2023-03-24T18:18:21.413Z,19.60
2023-03-24T18:20:48.190Z,19.70
2023-03-24T18:23:14.943Z,19.70
2023-03-24T18:25:41.541Z,19.80
2023-03-24T18:28:08.103Z,20.00
2023-03-24T18:30:34.729Z,20.00
2023-03-24T18:33:01.346Z,19.90
2023-03-24T18:35:28.118Z,20.00
2023-03-24T18:37:54.750Z,19.70
2023-03-24T18:40:21.393Z,19.70
2023-03-24T18:42:47.966Z,19.30
2023-03-24T18:45:14.993Z,19.50
2023-03-24T18:47:41.697Z,19.50
2023-03-24T18:50:08.335Z,19.60
2023-03-24T18:52:34.929Z,19.40
2023-03-24T18:55:01.513Z,19.70
2023-03-24T18:57:28.093Z,19.80
2023-03-24T18:59:54.655Z,20.00
2023-03-24T19:02:21.248Z,20.10
2023-03-24T19:04:47.848Z,20.10
2023-03-24T19:07:14.533Z,20.10
2023-03-24T19:09:41.434Z,19.90
2023-03-24T19:12:08.012Z,19.70
2023-03-24T19:14:34.573Z,19.40
2023-03-24T19:17:01.116Z,19.40
2023-03-24T19:19:27.707Z,19.30
2023-03-24T19:21:54.262Z,19.40
2023-03-24T19:24:20.825Z,19.60
2023-03-24T19:26:47.409Z,19.60
2023-03-24T19:29:13.994Z,19.60
2023-03-24T19:31:40.594Z,19.60
2023-03-24T19:34:07.169Z,19.60
2023-03-24T19:36:33.748Z,19.40
2023-03-24T19:39:00.295Z,19.00
2023-03-24T19:41:26.890Z,19.00
2023-03-24T19:43:53.455Z,19.10
2023-03-24T19:46:20.121Z,19.10
2023-03-24T19:48:46.935Z,19.00
2023-03-24T19:51:13.498Z,18.70
2023-03-24T19:53:40.128Z,18.70
2023-03-24T19:56:06.729Z,18.60
2023-03-24T19:58:33.267Z,18.70
2023-03-24T20:00:59.829Z,18.80
2023-03-24T20:03:26.507Z,18.90
2023-03-24T20:05:53.322Z,18.80
2023-03-24T20:08:19.934Z,18.90
2023-03-24T20:10:46.623Z,18.80
2023-03-24T20:13:13.232Z,18.80
2023-03-24T20:15:39.834Z,18.70
2023-03-24T20:18:06.427Z,18.60
2023-03-24T20:20:33.034Z,18.40
2023-03-24T20:22:59.571Z,18.50
2023-03-24T20:25:26.173Z,18.60
2023-03-24T20:27:52.774Z,18.60
2023-03-24T20:30:19.341Z,17.80
2023-03-24T20:32:45.919Z,17.40
2023-03-24T20:35:12.545Z,17.70
2023-03-24T20:37:39.170Z,17.90
2023-03-24T20:40:05.801Z,17.90
2023-03-24T20:42:32.375Z,18.10
2023-03-24T20:44:58.923Z,18.30
2023-03-24T20:47:25.577Z,18.40
2023-03-24T20:49:52.182Z,18.50
2023-03-24T20:52:18.739Z,18.40
2023-03-24T20:54:45.287Z,18.40
2023-03-24T20:57:11.896Z,18.20
2023-03-24T20:59:38.498Z,18.20
2023-03-24T21:02:05.144Z,18.40
2023-03-24T21:04:31.752Z,18.50
2023-03-24T21:06:58.342Z,18.40
2023-03-24T21:09:24.893Z,18.20
2023-03-24T21:11:51.460Z,18.00
2023-03-24T21:14:18.007Z,18.00
2023-03-24T21:16:44.657Z,17.80
2023-03-24T21:19:11.313Z,17.50
2023-03-24T21:21:37.878Z,17.90
2023-03-24T21:24:04.455Z,18.10
2023-03-24T21:26:31.017Z,17.80
2023-03-24T21:28:57.587Z,17.80
2023-03-24T21:31:24.164Z,17.90
2023-03-24T21:33:50.820Z,18.10
2023-03-24T21:36:17.445Z,18.20
2023-03-24T21:38:44.101Z,18.00
2023-03-24T21:41:10.653Z,17.40
2023-03-24T21:43:37.222Z,17.30
2023-03-24T21:46:03.874Z,17.30
2023-03-24T21:48:30.546Z,17.40
2023-03-24T21:50:57.301Z,17.40
2023-03-24T21:53:24.038Z,17.20
2023-03-24T21:55:50.983Z,17.20
2023-03-24T21:58:18.057Z,16.20
2023-03-24T22:00:44.615Z,15.20
2023-03-24T22:03:11.203Z,14.80
2023-03-24T22:05:37.822Z,14.50
2023-03-24T22:08:04.379Z,15.00
2023-03-24T22:10:30.940Z,14.70
2023-03-24T22:12:57.500Z,14.40
2023-03-24T22:15:24.054Z,14.40
2023-03-24T22:17:50.667Z,14.30
2023-03-24T22:20:17.306Z,14.30
2023-03-24T22:22:43.877Z,14.30
2023-03-24T22:25:10.441Z,14.40
2023-03-24T22:27:36.993Z,14.30
2023-03-24T22:30:03.577Z,14.10
2023-03-24T22:32:30.193Z,14.00
2023-03-24T22:34:56.823Z,14.20
2023-03-24T22:37:23.447Z,14.20
2023-03-24T22:39:50.028Z,14.10
2023-03-24T22:42:16.576Z,13.90
2023-03-24T22:44:43.137Z,13.70
2023-03-24T22:47:09.735Z,13.70
2023-03-24T22:49:36.278Z,13.80
2023-03-24T22:52:02.836Z,13.60
2023-03-24T22:54:29.411Z,13.60
2023-03-24T22:56:56.026Z,13.40
2023-03-24T22:59:22.658Z,13.40
2023-03-24T23:01:56.111Z,13.30
2023-03-24T23:04:32.724Z,13.60
2023-03-24T23:06:59.280Z,13.90
2023-03-24T23:09:25.867Z,13.80
2023-03-24T23:11:52.440Z,13.80
2023-03-24T23:14:18.991Z,13.60
2023-03-24T23:16:45.676Z,13.50
2023-03-24T23:19:12.311Z,13.60
2023-03-24T23:21:38.865Z,13.50
2023-03-24T23:24:05.448Z,13.50
2023-03-24T23:26:32.023Z,13.20
2023-03-24T23:28:58.593Z,13.30
2023-03-24T23:31:25.172Z,13.20
2023-03-24T23:33:51.827Z,13.40
2023-03-24T23:36:19.372Z,13.80
2023-03-24T23:38:46.071Z,13.90
2023-03-24T23:41:12.645Z,13.70
2023-03-24T23:43:39.324Z,13.70
2023-03-24T23:46:05.930Z,13.60
2023-03-24T23:48:32.509Z,13.20
2023-03-24T23:50:59.086Z,13.50
2023-03-24T23:53:25.657Z,13.50
2023-03-24T23:55:52.336Z,13.70
2023-03-24T23:58:18.962Z,13.60
